Terminal Aerodrome Forecast
Issued by NWS Albany, NY

Home | Current Version | Previous Version | Text Only | Print | Product List | Glossary On
Versions: 1 2 3 4 5 6 7 8 9 10 11 12
000
FTUS41 KALY 210500
TAFGFL
TAF
KGFL 210539Z 2106/2206 19004KT P6SM BKN150 BKN250
     FM211300 19009KT P6SM BKN150 BKN250
     FM212100 19009KT P6SM BKN120 BKN150
     FM220300 19003KT P6SM SCT050 BKN100 OVC120=

USA.gov is the U.S. government's official web portal to all federal, state and local government web resources and services.